createdAt,value
2023-09-26T00:00:35.035Z,95.69
2023-09-26T00:03:37.803Z,96.17
2023-09-26T00:06:40.249Z,96.55
2023-09-26T00:09:42.936Z,96.70
2023-09-26T00:12:45.604Z,97.09
2023-09-26T00:15:48.490Z,97.03
2023-09-26T00:18:51.003Z,96.86
2023-09-26T00:21:53.839Z,96.84
2023-09-26T00:24:56.824Z,96.49
2023-09-26T00:27:59.736Z,96.36
2023-09-26T00:31:06.336Z,96.66
2023-09-26T00:34:09.294Z,96.73
2023-09-26T00:37:11.905Z,96.96
2023-09-26T00:40:20.258Z,97.04
2023-09-26T00:43:23.753Z,97.33
2023-09-26T00:46:26.732Z,97.52
2023-09-26T00:49:32.991Z,97.52
2023-09-26T00:52:37.572Z,97.42
2023-09-26T00:55:40.114Z,97.77
2023-09-26T00:58:42.994Z,97.81
2023-09-26T01:01:46.900Z,97.72
2023-09-26T01:04:50.081Z,98.11
2023-09-26T01:07:52.879Z,97.75
2023-09-26T01:10:55.633Z,97.73
2023-09-26T01:13:58.048Z,97.69
2023-09-26T01:17:00.873Z,97.68
2023-09-26T01:20:13.518Z,97.47
2023-09-26T01:23:17.446Z,97.73
2023-09-26T01:26:19.869Z,97.52
2023-09-26T01:29:22.536Z,97.82
2023-09-26T01:32:26.798Z,97.89
2023-09-26T01:35:29.712Z,97.76
2023-09-26T01:38:32.114Z,97.87
2023-09-26T01:41:34.897Z,98.19
2023-09-26T01:44:37.484Z,98.54
2023-09-26T01:47:50.583Z,98.70
2023-09-26T01:50:53.045Z,98.56
2023-09-26T01:53:55.812Z,98.44
2023-09-26T01:56:58.253Z,98.55
2023-09-26T02:00:06.835Z,98.61
2023-09-26T02:03:14.235Z,98.65
2023-09-26T02:06:17.935Z,98.64
2023-09-26T02:09:20.505Z,98.45
2023-09-26T02:12:23.618Z,98.68
2023-09-26T02:15:26.409Z,98.74
2023-09-26T02:18:29.721Z,98.76
2023-09-26T02:21:32.215Z,98.61
2023-09-26T02:24:35.070Z,98.80
2023-09-26T02:27:38.361Z,99.40
2023-09-26T02:30:42.501Z,99.20
2023-09-26T02:33:44.993Z,98.97
2023-09-26T02:36:48.735Z,99.12
2023-09-26T02:39:51.833Z,98.71
2023-09-26T02:42:54.574Z,98.45
2023-09-26T02:45:57.169Z,98.16
2023-09-26T02:49:01.541Z,98.28
2023-09-26T02:52:04.319Z,98.23
2023-09-26T02:55:08.849Z,98.27
2023-09-26T02:58:11.556Z,98.24
2023-09-26T03:01:18.183Z,98.61
2023-09-26T03:04:20.944Z,98.57
2023-09-26T03:07:23.857Z,98.82
2023-09-26T03:10:26.451Z,98.89
2023-09-26T03:13:34.048Z,99.01
2023-09-26T03:16:36.867Z,99.05
2023-09-26T03:19:39.831Z,99.04
2023-09-26T03:22:42.943Z,98.82
2023-09-26T03:25:45.603Z,98.62
2023-09-26T03:28:48.172Z,98.88
2023-09-26T03:31:51.233Z,98.75
2023-09-26T03:34:53.746Z,98.87
2023-09-26T03:37:56.626Z,98.78
2023-09-26T03:41:04.685Z,98.99
2023-09-26T03:44:08.097Z,99.25
2023-09-26T03:47:10.818Z,99.38
2023-09-26T03:50:13.738Z,99.49
2023-09-26T03:53:16.286Z,99.69
2023-09-26T03:56:19.069Z,99.74
2023-09-26T03:59:21.517Z,99.90
2023-09-26T04:02:24.379Z,99.82
2023-09-26T04:05:27.179Z,99.72
2023-09-26T04:08:29.712Z,99.83
2023-09-26T04:11:32.530Z,99.80
2023-09-26T04:14:35.050Z,99.89
2023-09-26T04:17:39.155Z,100.00
2023-09-26T04:20:41.774Z,99.79
2023-09-26T04:23:44.480Z,99.73
2023-09-26T04:26:47.899Z,99.63
2023-09-26T04:29:53.004Z,99.69
2023-09-26T04:32:55.612Z,99.62
2023-09-26T04:35:58.600Z,99.70
2023-09-26T04:39:01.181Z,99.67
2023-09-26T04:42:05.610Z,99.59
2023-09-26T04:45:09.026Z,99.74
2023-09-26T04:48:11.868Z,99.76
2023-09-26T04:51:15.916Z,99.71
2023-09-26T04:54:18.823Z,99.56
2023-09-26T04:57:21.306Z,99.67
2023-09-26T05:00:24.054Z,99.43
2023-09-26T05:03:26.647Z,99.39
2023-09-26T05:06:30.650Z,99.37
2023-09-26T05:09:33.210Z,99.32
2023-09-26T05:12:41.457Z,99.28
2023-09-26T05:15:44.016Z,99.32
2023-09-26T05:18:47.590Z,99.15
2023-09-26T05:21:50.141Z,99.10
2023-09-26T05:24:52.998Z,98.83
2023-09-26T05:27:55.631Z,98.66
2023-09-26T05:30:58.768Z,98.44
2023-09-26T05:34:01.425Z,98.32
2023-09-26T05:37:04.241Z,98.26
2023-09-26T05:40:08.343Z,98.04
2023-09-26T05:43:11.249Z,97.82
2023-09-26T05:46:13.823Z,97.80
2023-09-26T05:49:16.724Z,97.51
2023-09-26T05:52:21.580Z,97.23
2023-09-26T05:55:24.567Z,96.13
2023-09-26T05:58:27.360Z,94.76
2023-09-26T06:01:30.242Z,93.82
2023-09-26T06:04:33.337Z,93.13
2023-09-26T06:07:36.012Z,92.50
2023-09-26T06:10:38.982Z,91.80
2023-09-26T06:13:43.939Z,91.17
2023-09-26T06:16:46.753Z,90.45
2023-09-26T06:19:49.268Z,90.01
2023-09-26T06:22:52.060Z,89.37
2023-09-26T06:25:59.130Z,88.70
2023-09-26T06:29:02.237Z,88.11
2023-09-26T06:32:04.846Z,87.83
2023-09-26T06:35:08.114Z,87.71
2023-09-26T06:38:10.582Z,87.90
2023-09-26T06:41:14.067Z,87.58
2023-09-26T06:44:16.665Z,87.52
2023-09-26T06:47:19.439Z,87.21
2023-09-26T06:50:22.707Z,86.73
2023-09-26T06:53:25.588Z,86.45
2023-09-26T06:56:28.785Z,85.84
2023-09-26T06:59:31.902Z,85.22
2023-09-26T07:02:35.039Z,84.72
2023-09-26T07:05:37.951Z,84.80
2023-09-26T07:08:42.328Z,84.51
2023-09-26T07:11:45.124Z,84.17
2023-09-26T07:14:49.050Z,84.05
2023-09-26T07:17:51.812Z,83.12
2023-09-26T07:20:54.742Z,81.83
2023-09-26T07:23:58.198Z,81.41
2023-09-26T07:27:00.962Z,80.98
2023-09-26T07:30:05.273Z,80.97
2023-09-26T07:33:07.741Z,80.73
2023-09-26T07:36:11.350Z,80.21
2023-09-26T07:39:15.957Z,79.84
2023-09-26T07:42:22.787Z,79.86
2023-09-26T07:45:25.270Z,79.17
2023-09-26T07:48:28.026Z,78.66
2023-09-26T07:51:30.487Z,78.21
2023-09-26T07:54:33.890Z,77.47
2023-09-26T07:57:36.313Z,75.62
2023-09-26T08:00:39.154Z,73.23
2023-09-26T08:03:44.916Z,72.84
2023-09-26T08:06:47.565Z,72.56
2023-09-26T08:09:50.408Z,72.54
2023-09-26T08:12:52.904Z,72.30
2023-09-26T08:15:55.748Z,70.91
2023-09-26T08:18:58.654Z,69.84
2023-09-26T08:22:02.020Z,70.33
2023-09-26T08:25:05.256Z,69.44
2023-09-26T08:28:08.305Z,68.64
2023-09-26T08:31:16.312Z,68.70
2023-09-26T08:34:19.378Z,67.53
2023-09-26T08:37:21.927Z,67.15
2023-09-26T08:40:28.551Z,66.27
2023-09-26T08:43:31.290Z,66.78
2023-09-26T08:46:35.428Z,65.98
2023-09-26T08:49:42.526Z,64.48
2023-09-26T08:52:45.431Z,64.66
2023-09-26T08:55:50.326Z,64.73
2023-09-26T08:58:55.974Z,63.60
2023-09-26T09:01:59.039Z,62.96
2023-09-26T09:05:02.098Z,62.02
2023-09-26T09:08:04.948Z,60.70
2023-09-26T09:11:07.932Z,60.45
2023-09-26T09:14:10.581Z,58.52
2023-09-26T09:17:13.446Z,58.26
2023-09-26T09:20:29.500Z,58.40
2023-09-26T09:23:47.344Z,58.51
2023-09-26T09:26:52.681Z,58.52
2023-09-26T09:30:20.576Z,57.14
2023-09-26T09:33:23.703Z,56.84
2023-09-26T09:36:27.378Z,55.65
2023-09-26T09:39:31.211Z,54.49
2023-09-26T09:42:34.143Z,54.33
2023-09-26T09:45:38.678Z,53.66
2023-09-26T09:48:44.162Z,52.67
2023-09-26T09:51:48.650Z,52.73
2023-09-26T09:54:56.449Z,52.43
2023-09-26T09:58:03.759Z,51.73
2023-09-26T10:01:08.129Z,51.36
2023-09-26T10:04:11.525Z,49.91
2023-09-26T10:07:14.494Z,49.89
2023-09-26T10:10:19.302Z,50.24
2023-09-26T10:13:35.847Z,48.68
2023-09-26T10:16:39.604Z,48.01
2023-09-26T10:23:11.062Z,47.85
2023-09-26T10:26:13.535Z,47.80
2023-09-26T10:29:16.213Z,47.45
2023-09-26T10:32:44.419Z,47.49
2023-09-26T10:35:47.313Z,46.93
2023-09-26T10:39:06.893Z,46.09
2023-09-26T10:45:33.249Z,45.08
2023-09-26T10:48:36.201Z,45.01
2023-09-26T10:51:39.081Z,44.26
2023-09-26T10:54:42.647Z,43.88
2023-09-26T10:57:46.227Z,44.73
2023-09-26T11:04:15.801Z,43.07
2023-09-26T11:07:19.499Z,42.27
2023-09-26T11:10:22.767Z,41.72
2023-09-26T11:13:26.532Z,41.26
2023-09-26T11:16:29.056Z,41.45
2023-09-26T11:19:31.956Z,40.06
2023-09-26T11:22:48.085Z,40.75
2023-09-26T11:25:54.273Z,40.81
2023-09-26T11:28:56.840Z,40.78
2023-09-26T11:31:59.669Z,41.04
2023-09-26T11:35:02.415Z,41.09
2023-09-26T11:38:06.084Z,40.92
2023-09-26T11:41:11.235Z,40.12
2023-09-26T11:44:16.220Z,40.76
2023-09-26T11:47:18.659Z,40.91
2023-09-26T11:50:22.205Z,40.06
2023-09-26T11:53:27.075Z,39.51
2023-09-26T11:56:30.196Z,39.61
2023-09-26T11:59:33.279Z,37.77
2023-09-26T12:02:36.111Z,38.03
2023-09-26T12:05:39.144Z,36.90
2023-09-26T12:08:41.631Z,36.57
2023-09-26T12:11:45.597Z,36.51
2023-09-26T12:14:49.871Z,36.74
2023-09-26T12:17:55.050Z,37.39
2023-09-26T12:20:58.351Z,37.79
2023-09-26T12:24:01.278Z,38.22
2023-09-26T12:27:05.225Z,37.72
2023-09-26T12:30:08.509Z,37.90
2023-09-26T12:33:11.312Z,37.33
2023-09-26T12:36:14.199Z,35.71
2023-09-26T12:39:16.628Z,35.44
2023-09-26T12:42:19.393Z,35.68
2023-09-26T12:45:21.968Z,35.26
2023-09-26T12:48:25.391Z,34.72
2023-09-26T12:51:29.696Z,35.25
2023-09-26T12:54:34.682Z,35.32
2023-09-26T12:57:38.353Z,35.51
2023-09-26T13:00:41.915Z,35.45
2023-09-26T13:03:44.460Z,35.06
2023-09-26T13:06:47.279Z,34.62
2023-09-26T13:09:51.062Z,34.39
2023-09-26T13:12:53.824Z,33.96
2023-09-26T13:15:57.047Z,34.41
2023-09-26T13:19:00.709Z,32.88
2023-09-26T13:22:03.236Z,32.41
2023-09-26T13:25:09.494Z,32.85
2023-09-26T13:28:12.616Z,32.89
2023-09-26T13:31:15.516Z,33.34
2023-09-26T13:34:18.129Z,33.30
2023-09-26T13:37:20.807Z,32.56
2023-09-26T13:40:23.532Z,32.41
2023-09-26T13:43:26.321Z,32.65
2023-09-26T13:46:29.057Z,32.52
2023-09-26T13:49:32.028Z,32.81
2023-09-26T13:52:34.723Z,32.85
2023-09-26T13:55:37.532Z,32.71
2023-09-26T13:58:40.072Z,32.22
2023-09-26T14:01:42.960Z,32.20
2023-09-26T14:07:51.783Z,32.34
2023-09-26T14:10:54.642Z,31.92
2023-09-26T14:13:57.085Z,30.85
2023-09-26T14:16:59.907Z,30.99
2023-09-26T14:20:02.508Z,30.79
2023-09-26T14:23:06.608Z,30.17
2023-09-26T14:26:10.318Z,30.36
2023-09-26T14:29:13.224Z,30.47
2023-09-26T14:32:15.777Z,30.98
2023-09-26T14:35:18.874Z,31.05
2023-09-26T14:38:21.321Z,31.78
2023-09-26T14:41:24.050Z,31.92
2023-09-26T14:44:26.629Z,32.05
2023-09-26T14:47:29.669Z,32.18
2023-09-26T14:50:32.098Z,32.96
2023-09-26T14:53:37.622Z,32.58
2023-09-26T14:56:42.169Z,32.53
2023-09-26T14:59:44.878Z,33.17
2023-09-26T15:02:48.640Z,33.53
2023-09-26T15:05:51.830Z,33.58
2023-09-26T15:08:54.371Z,34.07
2023-09-26T15:11:57.357Z,34.63
2023-09-26T15:14:59.825Z,35.36
2023-09-26T15:18:02.739Z,35.56
2023-09-26T15:21:05.238Z,36.03
2023-09-26T15:24:08.189Z,36.23
2023-09-26T15:27:10.581Z,36.36
2023-09-26T15:30:13.637Z,36.86
2023-09-26T15:33:16.229Z,37.62
2023-09-26T15:36:19.056Z,37.95
2023-09-26T15:39:22.464Z,37.66
2023-09-26T15:42:25.315Z,37.65
2023-09-26T15:45:27.932Z,37.75
2023-09-26T15:48:30.712Z,38.43
2023-09-26T15:51:33.572Z,38.28
2023-09-26T15:54:36.325Z,38.64
2023-09-26T15:57:39.256Z,38.61
2023-09-26T16:00:41.963Z,38.81
2023-09-26T16:03:46.162Z,39.29
2023-09-26T16:06:48.638Z,39.16
2023-09-26T16:09:51.509Z,39.42
2023-09-26T16:13:06.861Z,39.63
2023-09-26T16:16:13.437Z,39.83
2023-09-26T16:19:17.109Z,40.34
2023-09-26T16:22:21.292Z,40.30
2023-09-26T16:25:23.787Z,40.68
2023-09-26T16:28:26.583Z,41.06
2023-09-26T16:31:29.356Z,41.17
2023-09-26T16:34:33.095Z,41.70
2023-09-26T16:37:36.890Z,41.95
2023-09-26T16:40:45.448Z,42.87
2023-09-26T16:43:48.014Z,43.33
2023-09-26T16:46:50.834Z,43.81
2023-09-26T16:49:53.584Z,43.90
2023-09-26T16:52:58.768Z,44.23
2023-09-26T16:56:01.417Z,44.49
2023-09-26T16:59:06.685Z,44.41
2023-09-26T17:02:09.599Z,44.58
2023-09-26T17:05:13.127Z,45.18
2023-09-26T17:08:17.315Z,45.62
2023-09-26T17:11:22.070Z,45.40
2023-09-26T17:14:25.053Z,46.40
2023-09-26T17:17:28.158Z,46.31
2023-09-26T17:20:30.676Z,46.69
2023-09-26T17:23:33.345Z,47.67
2023-09-26T17:26:35.770Z,48.21
2023-09-26T17:29:38.432Z,49.15
2023-09-26T17:32:43.087Z,48.86
2023-09-26T17:35:47.213Z,50.05
2023-09-26T17:38:50.715Z,49.98
2023-09-26T17:41:53.395Z,50.08
2023-09-26T17:44:55.794Z,51.45
2023-09-26T17:47:58.704Z,51.52
2023-09-26T17:51:07.407Z,51.49
2023-09-26T17:54:10.223Z,51.32
2023-09-26T17:57:12.704Z,51.30
2023-09-26T18:00:16.439Z,51.65
2023-09-26T18:03:20.170Z,51.79
2023-09-26T18:06:23.050Z,52.24
2023-09-26T18:09:25.778Z,52.29
2023-09-26T18:12:28.319Z,52.62
2023-09-26T18:15:32.418Z,53.79
2023-09-26T18:18:35.046Z,53.39
2023-09-26T18:21:37.994Z,53.25
2023-09-26T18:24:40.398Z,53.87
2023-09-26T18:27:43.176Z,53.30
2023-09-26T18:30:45.714Z,53.32
2023-09-26T18:33:48.409Z,53.22
2023-09-26T18:36:50.860Z,53.09
2023-09-26T18:39:53.636Z,53.72
2023-09-26T18:42:56.108Z,53.67
2023-09-26T18:45:59.057Z,53.70
2023-09-26T18:49:01.969Z,54.00
2023-09-26T18:52:04.997Z,53.93
2023-09-26T18:55:07.907Z,53.97
2023-09-26T18:58:11.022Z,54.14
2023-09-26T19:01:13.601Z,54.10
2023-09-26T19:04:16.938Z,54.05
2023-09-26T19:07:19.468Z,54.13
2023-09-26T19:10:22.444Z,54.28
2023-09-26T19:13:24.920Z,54.36
2023-09-26T19:16:27.722Z,54.75
2023-09-26T19:19:30.244Z,54.36
2023-09-26T19:22:32.963Z,54.57
2023-09-26T19:25:37.597Z,54.03
2023-09-26T19:28:40.350Z,53.60
2023-09-26T19:31:42.918Z,54.08
2023-09-26T19:34:45.766Z,54.04
2023-09-26T19:37:48.194Z,54.27
2023-09-26T19:40:50.895Z,54.18
2023-09-26T19:43:53.358Z,54.24
2023-09-26T19:46:56.948Z,54.53
2023-09-26T19:49:59.473Z,54.69
2023-09-26T19:53:02.183Z,54.69
2023-09-26T19:56:04.960Z,55.06
2023-09-26T19:59:07.730Z,55.14
2023-09-26T20:02:11.513Z,55.54
2023-09-26T20:05:14.669Z,55.65
2023-09-26T20:08:17.449Z,55.94
2023-09-26T20:11:20.245Z,56.22
2023-09-26T20:14:22.713Z,56.17
2023-09-26T20:17:25.782Z,56.41
2023-09-26T20:20:28.572Z,56.45
2023-09-26T20:23:31.366Z,56.27
2023-09-26T20:26:33.767Z,56.25
2023-09-26T20:29:36.575Z,56.31
2023-09-26T20:32:39.146Z,56.54
2023-09-26T20:35:41.919Z,56.52
2023-09-26T20:38:44.381Z,56.52
2023-09-26T20:41:47.095Z,56.47
2023-09-26T20:44:49.575Z,56.56
2023-09-26T20:47:52.618Z,56.68
2023-09-26T20:50:55.198Z,56.83
2023-09-26T20:53:57.894Z,56.84
2023-09-26T20:57:00.328Z,56.98
2023-09-26T21:00:05.616Z,56.90
2023-09-26T21:03:08.268Z,57.29
2023-09-26T21:06:13.027Z,57.36
2023-09-26T21:09:15.475Z,56.74
2023-09-26T21:12:18.135Z,57.04
2023-09-26T21:15:23.566Z,57.32
2023-09-26T21:18:26.452Z,57.42
2023-09-26T21:21:29.467Z,57.57
2023-09-26T21:24:32.352Z,57.40
2023-09-26T21:27:34.800Z,57.20
2023-09-26T21:30:38.078Z,57.80
2023-09-26T21:33:40.499Z,57.50
2023-09-26T21:36:43.258Z,57.67
2023-09-26T21:39:45.650Z,57.54
2023-09-26T21:42:48.530Z,57.29
2023-09-26T21:45:52.280Z,57.89
2023-09-26T21:48:55.555Z,58.45
2023-09-26T21:51:58.332Z,58.08
2023-09-26T21:55:01.008Z,57.76
2023-09-26T21:58:03.885Z,57.46
2023-09-26T22:01:06.574Z,57.58
2023-09-26T22:04:09.433Z,57.96
2023-09-26T22:07:11.948Z,57.36
2023-09-26T22:10:15.275Z,57.27
2023-09-26T22:13:18.938Z,56.27
2023-09-26T22:16:22.350Z,56.15
2023-09-26T22:19:24.824Z,56.99
2023-09-26T22:22:27.612Z,58.14
2023-09-26T22:25:30.124Z,59.24
2023-09-26T22:28:32.926Z,60.37
2023-09-26T22:31:35.583Z,60.09
2023-09-26T22:34:39.042Z,60.78
2023-09-26T22:37:41.562Z,62.14
2023-09-26T22:40:50.885Z,61.81
2023-09-26T22:43:54.330Z,60.52
2023-09-26T22:46:57.334Z,61.43
2023-09-26T22:50:01.270Z,59.87
2023-09-26T22:53:04.745Z,60.08
2023-09-26T22:56:07.272Z,60.33
2023-09-26T22:59:10.138Z,59.89
2023-09-26T23:02:13.062Z,60.22
2023-09-26T23:05:16.306Z,60.49
2023-09-26T23:08:19.122Z,60.84
2023-09-26T23:11:21.907Z,62.48
2023-09-26T23:14:24.796Z,63.59
2023-09-26T23:17:27.992Z,65.38
2023-09-26T23:20:30.552Z,65.14
2023-09-26T23:23:33.401Z,65.96
2023-09-26T23:26:35.789Z,66.16
2023-09-26T23:29:39.912Z,66.24
2023-09-26T23:32:42.903Z,67.49
2023-09-26T23:35:46.093Z,68.00
2023-09-26T23:38:48.455Z,66.00
2023-09-26T23:41:52.499Z,65.73
2023-09-26T23:44:54.956Z,66.02
2023-09-26T23:47:57.855Z,66.28
2023-09-26T23:51:00.470Z,67.00
2023-09-26T23:54:03.615Z,67.35
2023-09-26T23:57:05.989Z,67.40
